sensor_id;sensor_type;location;lat;lon;timestamp;P1;durP1;ratioP1;P2;durP2;ratioP2
51006;SDS011;37034;47.886;-3.904;2023-08-20T00:00:26;22.60;;;3.20;;
51006;SDS011;37034;47.886;-3.904;2023-08-20T00:02:55;25.73;;;3.75;;
51006;SDS011;37034;47.886;-3.904;2023-08-20T00:05:28;21.15;;;3.58;;
51006;SDS011;37034;47.886;-3.904;2023-08-20T00:07:54;18.52;;;2.88;;
51006;SDS011;37034;47.886;-3.904;2023-08-20T00:10:19;22.30;;;3.30;;
51006;SDS011;37034;47.886;-3.904;2023-08-20T00:12:45;25.00;;;2.97;;
51006;SDS011;37034;47.886;-3.904;2023-08-20T00:15:11;18.30;;;4.00;;
51006;SDS011;37034;47.886;-3.904;2023-08-20T00:17:37;24.83;;;3.80;;
51006;SDS011;37034;47.886;-3.904;2023-08-20T00:20:04;23.33;;;3.72;;
51006;SDS011;37034;47.886;-3.904;2023-08-20T00:22:37;24.75;;;3.50;;
51006;SDS011;37034;47.886;-3.904;2023-08-20T00:25:04;27.83;;;3.85;;
51006;SDS011;37034;47.886;-3.904;2023-08-20T00:27:31;16.02;;;2.78;;
51006;SDS011;37034;47.886;-3.904;2023-08-20T00:32:22;26.83;;;4.15;;
51006;SDS011;37034;47.886;-3.904;2023-08-20T00:34:48;26.02;;;3.90;;
51006;SDS011;37034;47.886;-3.904;2023-08-20T00:37:14;27.50;;;3.60;;
51006;SDS011;37034;47.886;-3.904;2023-08-20T00:39:40;22.05;;;3.50;;
51006;SDS011;37034;47.886;-3.904;2023-08-20T00:42:05;18.02;;;3.15;;
51006;SDS011;37034;47.886;-3.904;2023-08-20T00:44:32;22.65;;;3.13;;
51006;SDS011;37034;47.886;-3.904;2023-08-20T00:46:59;25.15;;;4.00;;
51006;SDS011;37034;47.886;-3.904;2023-08-20T00:49:25;16.80;;;2.67;;
51006;SDS011;37034;47.886;-3.904;2023-08-20T00:51:51;24.08;;;3.25;;
51006;SDS011;37034;47.886;-3.904;2023-08-20T00:54:18;21.48;;;3.47;;
51006;SDS011;37034;47.886;-3.904;2023-08-20T00:56:45;20.90;;;3.00;;
51006;SDS011;37034;47.886;-3.904;2023-08-20T01:01:37;20.35;;;3.45;;
51006;SDS011;37034;47.886;-3.904;2023-08-20T01:04:03;20.92;;;3.15;;
51006;SDS011;37034;47.886;-3.904;2023-08-20T01:09:21;21.58;;;3.50;;
51006;SDS011;37034;47.886;-3.904;2023-08-20T01:11:59;18.23;;;2.72;;
51006;SDS011;37034;47.886;-3.904;2023-08-20T01:14:26;20.10;;;3.30;;
51006;SDS011;37034;47.886;-3.904;2023-08-20T01:16:52;23.20;;;3.13;;
51006;SDS011;37034;47.886;-3.904;2023-08-20T01:19:18;24.13;;;3.53;;
51006;SDS011;37034;47.886;-3.904;2023-08-20T01:24:49;15.52;;;3.22;;
51006;SDS011;37034;47.886;-3.904;2023-08-20T01:27:43;17.10;;;2.95;;
51006;SDS011;37034;47.886;-3.904;2023-08-20T01:30:30;16.30;;;2.75;;
51006;SDS011;37034;47.886;-3.904;2023-08-20T01:32:57;21.20;;;3.00;;
51006;SDS011;37034;47.886;-3.904;2023-08-20T01:35:26;19.40;;;2.72;;
51006;SDS011;37034;47.886;-3.904;2023-08-20T01:37:52;26.17;;;3.42;;
51006;SDS011;37034;47.886;-3.904;2023-08-20T01:40:17;19.17;;;3.35;;
51006;SDS011;37034;47.886;-3.904;2023-08-20T01:42:43;27.63;;;3.70;;
51006;SDS011;37034;47.886;-3.904;2023-08-20T01:45:09;17.67;;;2.65;;
51006;SDS011;37034;47.886;-3.904;2023-08-20T01:47:35;21.45;;;3.40;;
51006;SDS011;37034;47.886;-3.904;2023-08-20T01:50:01;18.80;;;2.85;;
51006;SDS011;37034;47.886;-3.904;2023-08-20T01:52:27;21.77;;;2.90;;
51006;SDS011;37034;47.886;-3.904;2023-08-20T01:54:54;21.60;;;3.20;;
51006;SDS011;37034;47.886;-3.904;2023-08-20T01:57:20;15.88;;;2.60;;
51006;SDS011;37034;47.886;-3.904;2023-08-20T01:59:47;18.92;;;2.63;;
51006;SDS011;37034;47.886;-3.904;2023-08-20T02:02:13;20.92;;;3.28;;
51006;SDS011;37034;47.886;-3.904;2023-08-20T02:04:38;12.45;;;2.85;;
51006;SDS011;37034;47.886;-3.904;2023-08-20T02:07:04;13.82;;;2.45;;
51006;SDS011;37034;47.886;-3.904;2023-08-20T02:09:30;20.05;;;3.05;;
51006;SDS011;37034;47.886;-3.904;2023-08-20T02:11:55;23.88;;;3.30;;
51006;SDS011;37034;47.886;-3.904;2023-08-20T02:14:21;20.52;;;4.03;;
51006;SDS011;37034;47.886;-3.904;2023-08-20T02:16:47;18.65;;;3.20;;
51006;SDS011;37034;47.886;-3.904;2023-08-20T02:19:12;17.60;;;2.80;;
51006;SDS011;37034;47.886;-3.904;2023-08-20T02:21:39;20.05;;;2.90;;
51006;SDS011;37034;47.886;-3.904;2023-08-20T02:24:05;21.98;;;3.47;;
51006;SDS011;37034;47.886;-3.904;2023-08-20T02:26:31;27.33;;;3.13;;
51006;SDS011;37034;47.886;-3.904;2023-08-20T02:28:57;20.92;;;2.63;;
51006;SDS011;37034;47.886;-3.904;2023-08-20T02:31:22;18.08;;;2.22;;
51006;SDS011;37034;47.886;-3.904;2023-08-20T02:33:48;16.75;;;3.13;;
51006;SDS011;37034;47.886;-3.904;2023-08-20T02:36:14;16.48;;;2.55;;
51006;SDS011;37034;47.886;-3.904;2023-08-20T02:38:40;15.82;;;2.63;;
51006;SDS011;37034;47.886;-3.904;2023-08-20T02:41:06;14.52;;;2.65;;
51006;SDS011;37034;47.886;-3.904;2023-08-20T02:43:31;17.40;;;2.65;;
51006;SDS011;37034;47.886;-3.904;2023-08-20T02:45:57;19.77;;;2.55;;
51006;SDS011;37034;47.886;-3.904;2023-08-20T02:48:22;15.43;;;2.70;;
51006;SDS011;37034;47.886;-3.904;2023-08-20T02:50:55;16.92;;;2.95;;
51006;SDS011;37034;47.886;-3.904;2023-08-20T02:53:21;18.88;;;2.58;;
51006;SDS011;37034;47.886;-3.904;2023-08-20T02:55:47;13.05;;;2.35;;
51006;SDS011;37034;47.886;-3.904;2023-08-20T02:58:13;14.50;;;2.58;;
51006;SDS011;37034;47.886;-3.904;2023-08-20T03:00:39;14.68;;;2.88;;
51006;SDS011;37034;47.886;-3.904;2023-08-20T03:03:05;28.17;;;4.28;;
51006;SDS011;37034;47.886;-3.904;2023-08-20T03:05:33;16.67;;;3.15;;
51006;SDS011;37034;47.886;-3.904;2023-08-20T03:07:59;14.45;;;2.53;;
51006;SDS011;37034;47.886;-3.904;2023-08-20T03:10:28;17.38;;;2.85;;
51006;SDS011;37034;47.886;-3.904;2023-08-20T03:12:54;18.38;;;2.83;;
51006;SDS011;37034;47.886;-3.904;2023-08-20T03:15:20;18.67;;;3.25;;
51006;SDS011;37034;47.886;-3.904;2023-08-20T03:17:46;25.40;;;4.00;;
51006;SDS011;37034;47.886;-3.904;2023-08-20T03:20:11;19.08;;;3.40;;
51006;SDS011;37034;47.886;-3.904;2023-08-20T03:22:37;21.75;;;2.67;;
51006;SDS011;37034;47.886;-3.904;2023-08-20T03:25:03;15.93;;;2.58;;
51006;SDS011;37034;47.886;-3.904;2023-08-20T03:27:30;16.10;;;3.75;;
51006;SDS011;37034;47.886;-3.904;2023-08-20T03:29:55;20.13;;;3.65;;
51006;SDS011;37034;47.886;-3.904;2023-08-20T03:32:21;19.73;;;2.53;;
51006;SDS011;37034;47.886;-3.904;2023-08-20T03:34:47;16.42;;;3.00;;
51006;SDS011;37034;47.886;-3.904;2023-08-20T03:37:13;17.33;;;3.00;;
51006;SDS011;37034;47.886;-3.904;2023-08-20T03:39:38;19.17;;;2.92;;
51006;SDS011;37034;47.886;-3.904;2023-08-20T03:42:04;22.67;;;3.05;;
51006;SDS011;37034;47.886;-3.904;2023-08-20T03:44:30;11.00;;;2.58;;
51006;SDS011;37034;47.886;-3.904;2023-08-20T03:46:56;16.95;;;3.10;;
51006;SDS011;37034;47.886;-3.904;2023-08-20T03:49:22;16.35;;;3.17;;
51006;SDS011;37034;47.886;-3.904;2023-08-20T03:51:48;14.68;;;3.13;;
51006;SDS011;37034;47.886;-3.904;2023-08-20T03:54:13;24.17;;;3.58;;
51006;SDS011;37034;47.886;-3.904;2023-08-20T03:56:39;20.48;;;2.83;;
51006;SDS011;37034;47.886;-3.904;2023-08-20T03:59:04;19.75;;;3.22;;
51006;SDS011;37034;47.886;-3.904;2023-08-20T04:01:30;13.25;;;3.13;;
51006;SDS011;37034;47.886;-3.904;2023-08-20T04:03:56;20.52;;;4.22;;
51006;SDS011;37034;47.886;-3.904;2023-08-20T04:06:22;19.92;;;4.00;;
51006;SDS011;37034;47.886;-3.904;2023-08-20T04:08:47;19.23;;;4.65;;
51006;SDS011;37034;47.886;-3.904;2023-08-20T04:11:14;14.55;;;3.92;;
51006;SDS011;37034;47.886;-3.904;2023-08-20T04:13:39;17.15;;;4.53;;
51006;SDS011;37034;47.886;-3.904;2023-08-20T04:16:07;12.23;;;3.50;;
51006;SDS011;37034;47.886;-3.904;2023-08-20T04:18:33;13.65;;;3.83;;
51006;SDS011;37034;47.886;-3.904;2023-08-20T04:20:59;16.38;;;3.53;;
51006;SDS011;37034;47.886;-3.904;2023-08-20T04:23:25;13.63;;;3.90;;
51006;SDS011;37034;47.886;-3.904;2023-08-20T04:25:50;9.60;;;4.00;;
51006;SDS011;37034;47.886;-3.904;2023-08-20T04:28:16;18.27;;;4.47;;
51006;SDS011;37034;47.886;-3.904;2023-08-20T04:30:41;16.33;;;4.70;;
51006;SDS011;37034;47.886;-3.904;2023-08-20T04:33:08;13.10;;;3.60;;
51006;SDS011;37034;47.886;-3.904;2023-08-20T04:35:34;11.73;;;4.10;;
51006;SDS011;37034;47.886;-3.904;2023-08-20T04:38:00;9.63;;;3.65;;
51006;SDS011;37034;47.886;-3.904;2023-08-20T04:40:26;8.73;;;4.07;;
51006;SDS011;37034;47.886;-3.904;2023-08-20T04:42:52;10.80;;;4.00;;
51006;SDS011;37034;47.886;-3.904;2023-08-20T04:45:17;9.43;;;3.72;;
51006;SDS011;37034;47.886;-3.904;2023-08-20T04:47:44;10.02;;;3.85;;
51006;SDS011;37034;47.886;-3.904;2023-08-20T04:50:13;10.77;;;4.03;;
51006;SDS011;37034;47.886;-3.904;2023-08-20T04:52:39;11.30;;;3.83;;
51006;SDS011;37034;47.886;-3.904;2023-08-20T04:55:05;9.52;;;3.50;;
51006;SDS011;37034;47.886;-3.904;2023-08-20T04:57:32;12.43;;;4.25;;
51006;SDS011;37034;47.886;-3.904;2023-08-20T04:59:57;14.18;;;4.15;;
51006;SDS011;37034;47.886;-3.904;2023-08-20T05:02:23;11.38;;;3.85;;
51006;SDS011;37034;47.886;-3.904;2023-08-20T05:04:49;12.15;;;3.92;;
51006;SDS011;37034;47.886;-3.904;2023-08-20T05:07:15;13.02;;;4.28;;
51006;SDS011;37034;47.886;-3.904;2023-08-20T05:09:40;11.98;;;3.08;;
51006;SDS011;37034;47.886;-3.904;2023-08-20T05:12:06;15.70;;;4.00;;
51006;SDS011;37034;47.886;-3.904;2023-08-20T05:16:58;10.02;;;3.63;;
51006;SDS011;37034;47.886;-3.904;2023-08-20T05:19:24;13.25;;;3.78;;
51006;SDS011;37034;47.886;-3.904;2023-08-20T05:21:49;9.30;;;3.70;;
51006;SDS011;37034;47.886;-3.904;2023-08-20T05:24:15;13.15;;;3.97;;
51006;SDS011;37034;47.886;-3.904;2023-08-20T05:26:41;18.75;;;4.00;;
51006;SDS011;37034;47.886;-3.904;2023-08-20T05:29:06;11.88;;;3.40;;
51006;SDS011;37034;47.886;-3.904;2023-08-20T05:31:32;9.23;;;3.55;;
51006;SDS011;37034;47.886;-3.904;2023-08-20T05:33:58;11.02;;;3.75;;
51006;SDS011;37034;47.886;-3.904;2023-08-20T05:36:24;12.38;;;3.45;;
51006;SDS011;37034;47.886;-3.904;2023-08-20T05:38:49;14.95;;;4.07;;
51006;SDS011;37034;47.886;-3.904;2023-08-20T05:41:15;11.45;;;3.58;;
51006;SDS011;37034;47.886;-3.904;2023-08-20T05:43:40;12.25;;;4.57;;
51006;SDS011;37034;47.886;-3.904;2023-08-20T05:46:06;17.00;;;3.80;;
51006;SDS011;37034;47.886;-3.904;2023-08-20T05:48:32;14.30;;;4.00;;
51006;SDS011;37034;47.886;-3.904;2023-08-20T05:50:58;14.95;;;4.07;;
51006;SDS011;37034;47.886;-3.904;2023-08-20T05:53:23;12.52;;;4.00;;
51006;SDS011;37034;47.886;-3.904;2023-08-20T05:55:49;9.73;;;3.80;;
51006;SDS011;37034;47.886;-3.904;2023-08-20T05:58:15;13.38;;;3.85;;
51006;SDS011;37034;47.886;-3.904;2023-08-20T06:00:40;10.98;;;3.30;;
51006;SDS011;37034;47.886;-3.904;2023-08-20T06:03:06;11.07;;;3.50;;
51006;SDS011;37034;47.886;-3.904;2023-08-20T06:05:32;11.82;;;3.33;;
51006;SDS011;37034;47.886;-3.904;2023-08-20T06:07:58;10.73;;;3.42;;
51006;SDS011;37034;47.886;-3.904;2023-08-20T06:10:24;7.53;;;3.03;;
51006;SDS011;37034;47.886;-3.904;2023-08-20T06:12:50;12.40;;;3.83;;
51006;SDS011;37034;47.886;-3.904;2023-08-20T06:15:16;9.45;;;3.35;;
51006;SDS011;37034;47.886;-3.904;2023-08-20T06:17:41;12.88;;;3.92;;
51006;SDS011;37034;47.886;-3.904;2023-08-20T06:20:07;14.18;;;4.57;;
51006;SDS011;37034;47.886;-3.904;2023-08-20T06:24:59;14.13;;;4.57;;
51006;SDS011;37034;47.886;-3.904;2023-08-20T06:27:25;14.02;;;4.18;;
51006;SDS011;37034;47.886;-3.904;2023-08-20T06:29:51;11.95;;;4.22;;
51006;SDS011;37034;47.886;-3.904;2023-08-20T06:32:16;13.68;;;4.05;;
51006;SDS011;37034;47.886;-3.904;2023-08-20T06:34:42;15.93;;;4.10;;
51006;SDS011;37034;47.886;-3.904;2023-08-20T06:37:08;10.77;;;2.97;;
51006;SDS011;37034;47.886;-3.904;2023-08-20T06:39:33;12.63;;;3.40;;
51006;SDS011;37034;47.886;-3.904;2023-08-20T06:41:59;13.40;;;3.65;;
51006;SDS011;37034;47.886;-3.904;2023-08-20T06:44:24;14.23;;;3.53;;
51006;SDS011;37034;47.886;-3.904;2023-08-20T06:46:50;14.85;;;4.55;;
51006;SDS011;37034;47.886;-3.904;2023-08-20T06:49:16;14.38;;;3.47;;
51006;SDS011;37034;47.886;-3.904;2023-08-20T06:51:41;13.27;;;3.45;;
51006;SDS011;37034;47.886;-3.904;2023-08-20T06:54:07;11.80;;;3.53;;
51006;SDS011;37034;47.886;-3.904;2023-08-20T06:56:33;14.27;;;4.28;;
51006;SDS011;37034;47.886;-3.904;2023-08-20T06:58:59;9.65;;;3.20;;
51006;SDS011;37034;47.886;-3.904;2023-08-20T07:01:25;9.63;;;3.28;;
51006;SDS011;37034;47.886;-3.904;2023-08-20T07:03:51;9.82;;;3.17;;
51006;SDS011;37034;47.886;-3.904;2023-08-20T07:06:16;10.90;;;3.50;;
51006;SDS011;37034;47.886;-3.904;2023-08-20T07:08:43;13.30;;;3.72;;
51006;SDS011;37034;47.886;-3.904;2023-08-20T07:11:09;9.93;;;2.97;;
51006;SDS011;37034;47.886;-3.904;2023-08-20T07:13:35;12.02;;;1.98;;
51006;SDS011;37034;47.886;-3.904;2023-08-20T07:16:01;11.85;;;2.58;;
51006;SDS011;37034;47.886;-3.904;2023-08-20T07:18:27;12.40;;;3.33;;
51006;SDS011;37034;47.886;-3.904;2023-08-20T07:20:54;15.18;;;2.97;;
51006;SDS011;37034;47.886;-3.904;2023-08-20T07:23:20;13.88;;;2.28;;
51006;SDS011;37034;47.886;-3.904;2023-08-20T07:25:46;13.85;;;2.50;;
51006;SDS011;37034;47.886;-3.904;2023-08-20T07:28:13;15.25;;;2.70;;
51006;SDS011;37034;47.886;-3.904;2023-08-20T07:30:39;15.88;;;2.67;;
51006;SDS011;37034;47.886;-3.904;2023-08-20T07:33:05;12.50;;;2.10;;
51006;SDS011;37034;47.886;-3.904;2023-08-20T07:35:31;13.85;;;1.90;;
51006;SDS011;37034;47.886;-3.904;2023-08-20T07:37:57;11.98;;;2.13;;
51006;SDS011;37034;47.886;-3.904;2023-08-20T07:40:23;16.50;;;2.63;;
51006;SDS011;37034;47.886;-3.904;2023-08-20T07:42:48;13.73;;;2.47;;
51006;SDS011;37034;47.886;-3.904;2023-08-20T07:45:15;14.27;;;2.50;;
51006;SDS011;37034;47.886;-3.904;2023-08-20T07:47:41;18.80;;;2.78;;
51006;SDS011;37034;47.886;-3.904;2023-08-20T07:50:07;19.65;;;2.47;;
51006;SDS011;37034;47.886;-3.904;2023-08-20T07:52:33;15.50;;;2.35;;
51006;SDS011;37034;47.886;-3.904;2023-08-20T07:54:59;16.77;;;2.70;;
51006;SDS011;37034;47.886;-3.904;2023-08-20T07:57:24;15.25;;;2.38;;
51006;SDS011;37034;47.886;-3.904;2023-08-20T07:59:51;12.43;;;2.20;;
51006;SDS011;37034;47.886;-3.904;2023-08-20T08:02:16;14.80;;;2.50;;
51006;SDS011;37034;47.886;-3.904;2023-08-20T08:04:42;16.15;;;3.15;;
51006;SDS011;37034;47.886;-3.904;2023-08-20T08:07:08;16.70;;;2.20;;
51006;SDS011;37034;47.886;-3.904;2023-08-20T08:12:00;13.05;;;2.70;;
51006;SDS011;37034;47.886;-3.904;2023-08-20T08:14:26;11.55;;;2.13;;
51006;SDS011;37034;47.886;-3.904;2023-08-20T08:16:52;21.85;;;3.08;;
51006;SDS011;37034;47.886;-3.904;2023-08-20T08:19:18;17.38;;;2.50;;
51006;SDS011;37034;47.886;-3.904;2023-08-20T08:21:44;18.90;;;2.85;;
51006;SDS011;37034;47.886;-3.904;2023-08-20T08:24:10;11.52;;;2.55;;
51006;SDS011;37034;47.886;-3.904;2023-08-20T08:26:37;18.13;;;2.78;;
51006;SDS011;37034;47.886;-3.904;2023-08-20T08:29:03;15.77;;;3.13;;
51006;SDS011;37034;47.886;-3.904;2023-08-20T08:33:54;12.65;;;2.20;;
51006;SDS011;37034;47.886;-3.904;2023-08-20T08:36:20;12.20;;;2.25;;
51006;SDS011;37034;47.886;-3.904;2023-08-20T08:38:46;15.43;;;2.00;;
51006;SDS011;37034;47.886;-3.904;2023-08-20T08:41:12;16.65;;;1.92;;
51006;SDS011;37034;47.886;-3.904;2023-08-20T08:43:39;13.73;;;2.25;;
51006;SDS011;37034;47.886;-3.904;2023-08-20T08:46:06;12.68;;;2.58;;
51006;SDS011;37034;47.886;-3.904;2023-08-20T08:48:33;11.93;;;2.13;;
51006;SDS011;37034;47.886;-3.904;2023-08-20T08:51:00;11.50;;;2.17;;
51006;SDS011;37034;47.886;-3.904;2023-08-20T08:53:27;9.40;;;1.90;;
51006;SDS011;37034;47.886;-3.904;2023-08-20T08:55:53;10.38;;;2.05;;
51006;SDS011;37034;47.886;-3.904;2023-08-20T09:00:45;14.02;;;2.38;;
51006;SDS011;37034;47.886;-3.904;2023-08-20T09:03:11;11.70;;;2.00;;
51006;SDS011;37034;47.886;-3.904;2023-08-20T09:05:55;11.48;;;2.38;;
51006;SDS011;37034;47.886;-3.904;2023-08-20T09:08:26;15.05;;;2.30;;
51006;SDS011;37034;47.886;-3.904;2023-08-20T09:10:53;14.00;;;2.05;;
51006;SDS011;37034;47.886;-3.904;2023-08-20T09:13:24;13.15;;;2.20;;
51006;SDS011;37034;47.886;-3.904;2023-08-20T09:15:52;13.95;;;2.50;;
51006;SDS011;37034;47.886;-3.904;2023-08-20T09:18:19;14.40;;;2.58;;
51006;SDS011;37034;47.886;-3.904;2023-08-20T09:20:46;13.15;;;2.22;;
51006;SDS011;37034;47.886;-3.904;2023-08-20T09:23:14;13.02;;;2.10;;
51006;SDS011;37034;47.886;-3.904;2023-08-20T09:25:40;11.32;;;2.67;;
51006;SDS011;37034;47.886;-3.904;2023-08-20T09:28:10;15.77;;;3.17;;
51006;SDS011;37034;47.886;-3.904;2023-08-20T09:30:36;14.20;;;2.40;;
51006;SDS011;37034;47.886;-3.904;2023-08-20T09:35:36;13.15;;;2.88;;
51006;SDS011;37034;47.886;-3.904;2023-08-20T09:38:03;11.88;;;2.28;;
51006;SDS011;37034;47.886;-3.904;2023-08-20T09:40:29;12.07;;;3.08;;
51006;SDS011;37034;47.886;-3.904;2023-08-20T09:42:56;11.15;;;2.30;;
51006;SDS011;37034;47.886;-3.904;2023-08-20T09:45:24;12.65;;;2.30;;
51006;SDS011;37034;47.886;-3.904;2023-08-20T09:47:52;14.38;;;2.42;;
51006;SDS011;37034;47.886;-3.904;2023-08-20T09:50:21;13.35;;;2.50;;
51006;SDS011;37034;47.886;-3.904;2023-08-20T09:52:55;11.93;;;2.33;;
51006;SDS011;37034;47.886;-3.904;2023-08-20T09:55:32;12.73;;;2.08;;
51006;SDS011;37034;47.886;-3.904;2023-08-20T09:58:00;17.52;;;3.13;;
51006;SDS011;37034;47.886;-3.904;2023-08-20T10:00:26;11.20;;;2.47;;
51006;SDS011;37034;47.886;-3.904;2023-08-20T10:02:53;14.10;;;2.83;;
51006;SDS011;37034;47.886;-3.904;2023-08-20T10:05:19;9.77;;;2.40;;
51006;SDS011;37034;47.886;-3.904;2023-08-20T10:07:46;14.15;;;2.50;;
51006;SDS011;37034;47.886;-3.904;2023-08-20T10:10:12;13.35;;;2.47;;
51006;SDS011;37034;47.886;-3.904;2023-08-20T10:12:38;9.75;;;2.45;;
51006;SDS011;37034;47.886;-3.904;2023-08-20T10:15:07;14.85;;;3.05;;
51006;SDS011;37034;47.886;-3.904;2023-08-20T10:17:34;11.23;;;2.17;;
51006;SDS011;37034;47.886;-3.904;2023-08-20T10:20:03;15.02;;;2.72;;
51006;SDS011;37034;47.886;-3.904;2023-08-20T10:22:36;13.18;;;2.28;;
51006;SDS011;37034;47.886;-3.904;2023-08-20T10:25:08;15.20;;;2.28;;
51006;SDS011;37034;47.886;-3.904;2023-08-20T10:27:40;10.48;;;1.98;;
51006;SDS011;37034;47.886;-3.904;2023-08-20T10:30:17;9.85;;;2.38;;
51006;SDS011;37034;47.886;-3.904;2023-08-20T10:35:23;8.43;;;1.98;;
51006;SDS011;37034;47.886;-3.904;2023-08-20T10:38:01;13.20;;;2.35;;
51006;SDS011;37034;47.886;-3.904;2023-08-20T10:44:08;10.07;;;2.05;;
51006;SDS011;37034;47.886;-3.904;2023-08-20T10:48:52;11.50;;;2.35;;
51006;SDS011;37034;47.886;-3.904;2023-08-20T10:51:29;9.27;;;2.38;;
51006;SDS011;37034;47.886;-3.904;2023-08-20T10:59:13;11.02;;;2.33;;
51006;SDS011;37034;47.886;-3.904;2023-08-20T11:01:45;12.00;;;2.20;;
51006;SDS011;37034;47.886;-3.904;2023-08-20T11:04:13;12.25;;;2.33;;
51006;SDS011;37034;47.886;-3.904;2023-08-20T11:06:42;13.60;;;2.55;;
51006;SDS011;37034;47.886;-3.904;2023-08-20T11:09:09;13.48;;;2.25;;
51006;SDS011;37034;47.886;-3.904;2023-08-20T11:11:37;11.30;;;1.95;;
51006;SDS011;37034;47.886;-3.904;2023-08-20T11:14:07;9.02;;;1.88;;
51006;SDS011;37034;47.886;-3.904;2023-08-20T11:16:38;8.15;;;1.88;;
51006;SDS011;37034;47.886;-3.904;2023-08-20T11:21:33;8.43;;;2.15;;
51006;SDS011;37034;47.886;-3.904;2023-08-20T11:24:00;12.05;;;2.70;;
51006;SDS011;37034;47.886;-3.904;2023-08-20T11:26:26;8.82;;;2.08;;
51006;SDS011;37034;47.886;-3.904;2023-08-20T11:28:52;15.27;;;2.67;;
51006;SDS011;37034;47.886;-3.904;2023-08-20T11:31:18;9.43;;;2.10;;
51006;SDS011;37034;47.886;-3.904;2023-08-20T11:36:10;10.55;;;1.90;;
51006;SDS011;37034;47.886;-3.904;2023-08-20T11:38:36;12.85;;;2.08;;
51006;SDS011;37034;47.886;-3.904;2023-08-20T11:41:02;12.82;;;2.88;;
51006;SDS011;37034;47.886;-3.904;2023-08-20T11:43:28;9.20;;;2.15;;
51006;SDS011;37034;47.886;-3.904;2023-08-20T11:45:54;16.40;;;2.65;;
51006;SDS011;37034;47.886;-3.904;2023-08-20T11:48:20;11.93;;;2.70;;
51006;SDS011;37034;47.886;-3.904;2023-08-20T11:50:47;11.07;;;2.45;;
51006;SDS011;37034;47.886;-3.904;2023-08-20T11:53:14;12.07;;;2.47;;
51006;SDS011;37034;47.886;-3.904;2023-08-20T11:55:40;15.48;;;3.65;;
51006;SDS011;37034;47.886;-3.904;2023-08-20T11:58:13;15.90;;;2.95;;
51006;SDS011;37034;47.886;-3.904;2023-08-20T12:00:39;14.10;;;2.50;;
51006;SDS011;37034;47.886;-3.904;2023-08-20T12:03:05;13.48;;;2.97;;
51006;SDS011;37034;47.886;-3.904;2023-08-20T12:05:33;12.57;;;3.00;;
51006;SDS011;37034;47.886;-3.904;2023-08-20T12:08:02;10.80;;;2.45;;
51006;SDS011;37034;47.886;-3.904;2023-08-20T12:10:29;11.82;;;3.00;;
51006;SDS011;37034;47.886;-3.904;2023-08-20T12:12:56;11.57;;;3.05;;
51006;SDS011;37034;47.886;-3.904;2023-08-20T12:15:23;12.23;;;2.42;;
51006;SDS011;37034;47.886;-3.904;2023-08-20T12:17:56;10.45;;;2.20;;
51006;SDS011;37034;47.886;-3.904;2023-08-20T12:20:34;12.23;;;2.20;;
51006;SDS011;37034;47.886;-3.904;2023-08-20T12:23:05;14.18;;;2.20;;
51006;SDS011;37034;47.886;-3.904;2023-08-20T12:25:32;12.07;;;2.50;;
51006;SDS011;37034;47.886;-3.904;2023-08-20T12:28:03;13.48;;;2.85;;
51006;SDS011;37034;47.886;-3.904;2023-08-20T12:30:32;12.95;;;2.00;;
51006;SDS011;37034;47.886;-3.904;2023-08-20T12:33:01;11.43;;;2.33;;
51006;SDS011;37034;47.886;-3.904;2023-08-20T12:35:28;11.70;;;2.58;;
51006;SDS011;37034;47.886;-3.904;2023-08-20T12:37:54;11.52;;;2.28;;
51006;SDS011;37034;47.886;-3.904;2023-08-20T12:40:19;11.32;;;2.20;;
51006;SDS011;37034;47.886;-3.904;2023-08-20T12:42:45;8.43;;;1.83;;
51006;SDS011;37034;47.886;-3.904;2023-08-20T12:45:10;12.10;;;2.60;;
51006;SDS011;37034;47.886;-3.904;2023-08-20T12:47:38;14.50;;;2.47;;
51006;SDS011;37034;47.886;-3.904;2023-08-20T12:50:04;13.13;;;2.33;;
51006;SDS011;37034;47.886;-3.904;2023-08-20T12:54:56;23.23;;;4.83;;
51006;SDS011;37034;47.886;-3.904;2023-08-20T12:57:22;9.75;;;2.35;;
51006;SDS011;37034;47.886;-3.904;2023-08-20T12:59:47;10.68;;;2.20;;
51006;SDS011;37034;47.886;-3.904;2023-08-20T13:02:13;12.30;;;2.63;;
51006;SDS011;37034;47.886;-3.904;2023-08-20T13:04:39;9.18;;;2.55;;
51006;SDS011;37034;47.886;-3.904;2023-08-20T13:07:05;10.93;;;2.50;;
51006;SDS011;37034;47.886;-3.904;2023-08-20T13:11:57;11.57;;;2.42;;
51006;SDS011;37034;47.886;-3.904;2023-08-20T13:14:27;10.52;;;1.80;;
51006;SDS011;37034;47.886;-3.904;2023-08-20T13:16:53;9.57;;;2.15;;
51006;SDS011;37034;47.886;-3.904;2023-08-20T13:19:19;9.90;;;2.42;;
51006;SDS011;37034;47.886;-3.904;2023-08-20T13:21:44;13.38;;;2.30;;
51006;SDS011;37034;47.886;-3.904;2023-08-20T13:24:10;11.00;;;2.13;;
51006;SDS011;37034;47.886;-3.904;2023-08-20T13:26:36;8.68;;;1.77;;
51006;SDS011;37034;47.886;-3.904;2023-08-20T13:29:01;11.02;;;2.60;;
51006;SDS011;37034;47.886;-3.904;2023-08-20T13:31:28;15.15;;;2.78;;
51006;SDS011;37034;47.886;-3.904;2023-08-20T13:33:53;11.27;;;2.30;;
51006;SDS011;37034;47.886;-3.904;2023-08-20T13:36:19;15.18;;;2.60;;
51006;SDS011;37034;47.886;-3.904;2023-08-20T13:38:45;10.73;;;2.67;;
51006;SDS011;37034;47.886;-3.904;2023-08-20T13:41:10;16.33;;;3.22;;
51006;SDS011;37034;47.886;-3.904;2023-08-20T13:43:36;13.95;;;2.90;;
51006;SDS011;37034;47.886;-3.904;2023-08-20T13:46:01;13.60;;;2.38;;
51006;SDS011;37034;47.886;-3.904;2023-08-20T13:48:27;12.15;;;2.15;;
51006;SDS011;37034;47.886;-3.904;2023-08-20T13:50:53;8.27;;;2.15;;
51006;SDS011;37034;47.886;-3.904;2023-08-20T13:53:18;16.60;;;2.83;;
51006;SDS011;37034;47.886;-3.904;2023-08-20T13:55:44;10.32;;;2.55;;
51006;SDS011;37034;47.886;-3.904;2023-08-20T13:58:10;8.77;;;1.83;;
51006;SDS011;37034;47.886;-3.904;2023-08-20T14:00:35;10.35;;;2.05;;
51006;SDS011;37034;47.886;-3.904;2023-08-20T14:03:01;11.20;;;2.28;;
51006;SDS011;37034;47.886;-3.904;2023-08-20T14:05:26;12.00;;;2.33;;
51006;SDS011;37034;47.886;-3.904;2023-08-20T14:07:54;12.95;;;2.72;;
51006;SDS011;37034;47.886;-3.904;2023-08-20T14:10:19;14.43;;;2.40;;
51006;SDS011;37034;47.886;-3.904;2023-08-20T14:12:45;10.55;;;2.85;;
51006;SDS011;37034;47.886;-3.904;2023-08-20T14:15:11;13.25;;;2.78;;
51006;SDS011;37034;47.886;-3.904;2023-08-20T14:17:36;10.88;;;2.47;;
51006;SDS011;37034;47.886;-3.904;2023-08-20T14:20:02;11.55;;;2.70;;
51006;SDS011;37034;47.886;-3.904;2023-08-20T14:24:54;11.15;;;2.35;;
51006;SDS011;37034;47.886;-3.904;2023-08-20T14:27:19;12.18;;;2.47;;
51006;SDS011;37034;47.886;-3.904;2023-08-20T14:29:47;10.73;;;2.72;;
51006;SDS011;37034;47.886;-3.904;2023-08-20T14:32:13;10.80;;;2.53;;
51006;SDS011;37034;47.886;-3.904;2023-08-20T14:34:38;13.18;;;2.50;;
51006;SDS011;37034;47.886;-3.904;2023-08-20T14:37:04;12.75;;;2.38;;
51006;SDS011;37034;47.886;-3.904;2023-08-20T14:39:29;10.20;;;1.90;;
51006;SDS011;37034;47.886;-3.904;2023-08-20T14:41:56;9.70;;;2.20;;
51006;SDS011;37034;47.886;-3.904;2023-08-20T14:44:23;12.27;;;2.53;;
51006;SDS011;37034;47.886;-3.904;2023-08-20T14:46:48;11.15;;;2.30;;
51006;SDS011;37034;47.886;-3.904;2023-08-20T14:49:14;9.80;;;2.42;;
51006;SDS011;37034;47.886;-3.904;2023-08-20T14:51:41;8.60;;;1.75;;
51006;SDS011;37034;47.886;-3.904;2023-08-20T14:54:06;11.32;;;2.30;;
51006;SDS011;37034;47.886;-3.904;2023-08-20T14:56:32;10.48;;;2.10;;
51006;SDS011;37034;47.886;-3.904;2023-08-20T14:58:58;10.75;;;2.20;;
51006;SDS011;37034;47.886;-3.904;2023-08-20T15:01:24;10.13;;;2.20;;
51006;SDS011;37034;47.886;-3.904;2023-08-20T15:03:50;14.55;;;2.30;;
51006;SDS011;37034;47.886;-3.904;2023-08-20T15:06:15;12.45;;;2.40;;
51006;SDS011;37034;47.886;-3.904;2023-08-20T15:08:41;11.90;;;2.70;;
51006;SDS011;37034;47.886;-3.904;2023-08-20T15:11:07;12.23;;;2.70;;